createdAt,value
2019-03-19T00:00:58.105Z,18.40
2019-03-19T00:01:58.075Z,17.10
2019-03-19T00:02:58.049Z,17.00
2019-03-19T00:03:58.011Z,15.90
2019-03-19T00:04:57.978Z,21.00
2019-03-19T00:05:57.946Z,18.30
2019-03-19T00:06:57.914Z,15.20
2019-03-19T00:07:57.923Z,16.80
2019-03-19T00:08:57.852Z,17.40
2019-03-19T00:09:57.822Z,18.30
2019-03-19T00:10:57.786Z,14.10
2019-03-19T00:11:58.028Z,16.20
2019-03-19T00:12:57.724Z,21.30
2019-03-19T00:13:57.697Z,18.70
2019-03-19T00:14:57.661Z,18.50
2019-03-19T00:15:57.627Z,17.80
2019-03-19T00:16:57.594Z,17.40
2019-03-19T00:17:57.563Z,17.70
2019-03-19T00:18:57.532Z,20.40
2019-03-19T00:19:57.502Z,15.40
2019-03-19T00:20:57.471Z,19.40
2019-03-19T00:21:57.436Z,16.20
2019-03-19T00:22:57.408Z,18.90
2019-03-19T00:23:57.373Z,16.30
2019-03-19T00:24:57.342Z,18.40
2019-03-19T00:25:57.309Z,21.20
2019-03-19T00:26:57.277Z,18.50
2019-03-19T00:27:57.246Z,19.60
2019-03-19T00:28:57.213Z,19.00
2019-03-19T00:29:57.180Z,19.60
2019-03-19T00:30:57.150Z,18.40
2019-03-19T00:31:57.117Z,18.00
2019-03-19T00:32:57.086Z,16.80
2019-03-19T00:33:57.053Z,16.50
2019-03-19T00:34:57.022Z,21.50
2019-03-19T00:35:56.988Z,14.20
2019-03-19T00:36:56.961Z,17.30
2019-03-19T00:37:56.925Z,17.60
2019-03-19T00:38:56.893Z,19.20
2019-03-19T00:39:56.861Z,16.30
2019-03-19T00:40:56.828Z,18.20
2019-03-19T00:41:56.795Z,17.70
2019-03-19T00:42:56.763Z,19.60
2019-03-19T00:43:56.732Z,15.80
2019-03-19T00:44:56.700Z,17.20
2019-03-19T00:45:56.667Z,13.70
2019-03-19T00:46:56.635Z,16.30
2019-03-19T00:47:56.603Z,17.00
2019-03-19T00:48:56.573Z,16.70
2019-03-19T00:49:56.542Z,18.40
2019-03-19T00:50:56.504Z,14.90
2019-03-19T00:51:56.525Z,18.60
2019-03-19T00:52:56.441Z,20.90
2019-03-19T00:53:56.409Z,19.80
2019-03-19T00:54:56.376Z,20.80
2019-03-19T00:55:56.351Z,16.50
2019-03-19T00:56:56.311Z,20.70
2019-03-19T00:57:56.279Z,22.70
2019-03-19T00:58:56.247Z,16.80
2019-03-19T00:59:56.214Z,17.50
2019-03-19T01:00:56.181Z,20.20
2019-03-19T01:01:56.150Z,16.90
2019-03-19T01:02:56.119Z,15.20
2019-03-19T01:03:56.086Z,17.80
2019-03-19T01:04:56.053Z,19.10
2019-03-19T01:05:56.028Z,20.40
2019-03-19T01:06:55.990Z,16.70
2019-03-19T01:07:55.961Z,20.70
2019-03-19T01:08:55.929Z,23.20
2019-03-19T01:09:55.893Z,15.00
2019-03-19T01:10:55.862Z,20.30
2019-03-19T01:11:55.831Z,17.50
2019-03-19T01:12:55.798Z,19.50
2019-03-19T01:13:55.765Z,19.60
2019-03-19T01:14:55.735Z,15.20
2019-03-19T01:15:55.701Z,19.80
2019-03-19T01:16:55.668Z,19.00
2019-03-19T01:17:55.638Z,16.80
2019-03-19T01:18:55.605Z,18.40
2019-03-19T01:19:55.573Z,15.10
2019-03-19T01:20:55.542Z,16.10
2019-03-19T01:21:55.510Z,23.10
2019-03-19T01:22:55.477Z,18.10
2019-03-19T01:23:55.444Z,19.60
2019-03-19T01:24:55.412Z,14.90
2019-03-19T01:25:55.969Z,13.40
2019-03-19T01:26:55.350Z,15.80
2019-03-19T01:27:55.318Z,17.10
2019-03-19T01:28:55.289Z,12.60
2019-03-19T01:29:55.253Z,15.70
2019-03-19T01:30:55.223Z,19.10
2019-03-19T01:31:55.190Z,10.70
2019-03-19T01:32:55.156Z,16.70
2019-03-19T01:33:55.124Z,13.80
2019-03-19T01:34:55.092Z,17.00
2019-03-19T01:35:55.061Z,13.40
2019-03-19T01:36:55.030Z,18.90
2019-03-19T01:37:54.996Z,18.10
2019-03-19T01:38:54.973Z,18.20
2019-03-19T01:39:54.934Z,18.60
2019-03-19T01:40:54.903Z,19.20
2019-03-19T01:41:54.867Z,17.20
2019-03-19T01:42:54.835Z,15.00
2019-03-19T01:43:54.803Z,14.80
2019-03-19T01:44:54.771Z,18.50
2019-03-19T01:45:54.739Z,16.90
2019-03-19T01:46:54.706Z,16.30
2019-03-19T01:47:54.678Z,14.20
2019-03-19T01:48:54.643Z,16.70
2019-03-19T01:49:54.611Z,14.00
2019-03-19T01:50:54.578Z,16.60
2019-03-19T01:51:54.547Z,15.40
2019-03-19T01:52:54.514Z,18.70
2019-03-19T01:53:54.481Z,19.30
2019-03-19T01:54:54.452Z,18.00
2019-03-19T01:56:04.459Z,19.10
2019-03-19T01:56:54.386Z,14.40
2019-03-19T01:57:54.354Z,19.90
2019-03-19T01:58:54.324Z,15.90
2019-03-19T01:59:54.289Z,17.90
2019-03-19T02:00:54.256Z,19.90
2019-03-19T02:01:54.225Z,16.00
2019-03-19T02:02:54.192Z,17.10
2019-03-19T02:03:54.160Z,16.80
2019-03-19T02:04:54.127Z,15.40
2019-03-19T02:05:54.095Z,18.10
2019-03-19T02:06:54.067Z,23.30
2019-03-19T02:07:54.030Z,16.20
2019-03-19T02:08:53.997Z,19.50
2019-03-19T02:09:53.966Z,20.30
2019-03-19T02:10:53.936Z,24.90
2019-03-19T02:11:53.901Z,19.20
2019-03-19T02:12:53.969Z,16.40
2019-03-19T02:13:53.837Z,18.00
2019-03-19T02:14:53.803Z,16.90
2019-03-19T02:15:53.772Z,15.40
2019-03-19T02:16:53.740Z,19.50
2019-03-19T02:17:53.707Z,17.90
2019-03-19T02:18:53.678Z,18.60
2019-03-19T02:19:53.643Z,19.40
2019-03-19T02:20:53.607Z,16.60
2019-03-19T02:21:53.577Z,19.50
2019-03-19T02:22:53.545Z,19.90
2019-03-19T02:23:53.514Z,17.80
2019-03-19T02:24:53.480Z,24.10
2019-03-19T02:25:53.448Z,16.80
2019-03-19T02:26:53.417Z,16.70
2019-03-19T02:27:53.384Z,19.70
2019-03-19T02:28:53.357Z,17.80
2019-03-19T02:29:53.327Z,19.00
2019-03-19T02:30:53.294Z,22.40
2019-03-19T02:31:53.267Z,21.00
2019-03-19T02:32:53.221Z,17.00
2019-03-19T02:33:53.197Z,17.70
2019-03-19T02:34:53.160Z,21.50
2019-03-19T02:35:53.141Z,13.90
2019-03-19T02:36:53.101Z,17.80
2019-03-19T02:37:53.173Z,18.80
2019-03-19T02:38:53.043Z,14.10
2019-03-19T02:39:53.003Z,16.20
2019-03-19T02:40:52.965Z,19.60
2019-03-19T02:41:52.938Z,13.90
2019-03-19T02:42:52.941Z,19.20
2019-03-19T02:43:52.866Z,15.90
2019-03-19T02:44:52.842Z,17.30
2019-03-19T02:45:52.801Z,15.70
2019-03-19T02:46:52.768Z,19.90
2019-03-19T02:47:52.751Z,18.20
2019-03-19T02:48:52.703Z,13.80
2019-03-19T02:49:52.671Z,18.00
2019-03-19T02:50:52.640Z,20.90
2019-03-19T02:51:52.608Z,17.50
2019-03-19T02:52:52.573Z,22.80
2019-03-19T02:53:52.542Z,14.10
2019-03-19T02:54:52.510Z,15.90
2019-03-19T02:55:52.476Z,20.80
2019-03-19T02:56:52.445Z,16.10
2019-03-19T02:57:52.411Z,17.30
2019-03-19T02:58:52.423Z,14.10
2019-03-19T02:59:52.362Z,18.20
2019-03-19T03:00:52.317Z,22.90
2019-03-19T03:01:52.293Z,18.10
2019-03-19T03:02:52.253Z,15.30
2019-03-19T03:03:52.220Z,17.10
2019-03-19T03:04:52.189Z,16.90
2019-03-19T03:05:52.154Z,17.90
2019-03-19T03:06:52.123Z,18.10
2019-03-19T03:07:52.098Z,19.20
2019-03-19T03:08:52.061Z,18.30
2019-03-19T03:09:52.026Z,15.10
2019-03-19T03:10:51.995Z,17.00
2019-03-19T03:11:51.961Z,13.20
2019-03-19T03:12:51.929Z,14.50
2019-03-19T03:13:51.898Z,16.40
2019-03-19T03:14:51.865Z,13.60
2019-03-19T03:15:51.832Z,13.70
2019-03-19T03:16:51.801Z,16.50
2019-03-19T03:17:51.772Z,15.70
2019-03-19T03:18:51.735Z,19.80
2019-03-19T03:19:51.703Z,17.90
2019-03-19T03:20:51.679Z,16.70
2019-03-19T03:21:51.636Z,15.00
2019-03-19T03:22:51.609Z,15.10
2019-03-19T03:23:51.574Z,18.40
2019-03-19T03:24:51.540Z,20.30
2019-03-19T03:25:51.508Z,18.50
2019-03-19T03:26:51.481Z,17.40
2019-03-19T03:27:51.441Z,16.30
2019-03-19T03:28:51.465Z,19.00
2019-03-19T03:29:51.377Z,14.90
2019-03-19T03:30:51.365Z,17.40
2019-03-19T03:31:51.313Z,15.50
2019-03-19T03:32:51.383Z,19.00
2019-03-19T03:33:51.247Z,16.40
2019-03-19T03:34:51.214Z,20.20
2019-03-19T03:35:51.188Z,16.00
2019-03-19T03:36:51.155Z,12.40
2019-03-19T03:37:51.121Z,15.10
2019-03-19T03:38:51.086Z,15.30
2019-03-19T03:39:51.050Z,18.40
2019-03-19T03:40:51.024Z,18.20
2019-03-19T03:41:50.986Z,20.50
2019-03-19T03:42:50.953Z,19.50
2019-03-19T03:43:50.921Z,19.60
2019-03-19T03:44:50.889Z,18.50
2019-03-19T03:45:50.864Z,17.20
2019-03-19T03:46:50.829Z,16.30
2019-03-19T03:47:50.792Z,14.20
2019-03-19T03:48:50.759Z,17.90
2019-03-19T03:49:50.726Z,18.70
2019-03-19T03:50:50.744Z,17.90
2019-03-19T03:51:50.663Z,16.30
2019-03-19T03:52:50.647Z,13.70
2019-03-19T03:53:50.596Z,16.80
2019-03-19T03:54:50.573Z,19.10
2019-03-19T03:55:50.537Z,20.00
2019-03-19T03:57:01.134Z,15.80
2019-03-19T03:57:50.466Z,20.60
2019-03-19T03:59:00.452Z,17.50
2019-03-19T03:59:50.402Z,20.30
2019-03-19T04:00:50.367Z,22.00
2019-03-19T04:01:50.335Z,19.70
2019-03-19T04:02:50.304Z,20.50
2019-03-19T04:03:50.271Z,19.50
2019-03-19T04:04:50.239Z,16.80
2019-03-19T04:05:50.206Z,16.10
2019-03-19T04:06:50.171Z,17.00
2019-03-19T04:07:50.140Z,24.00
2019-03-19T04:08:50.107Z,19.00
2019-03-19T04:09:50.073Z,21.40
2019-03-19T04:10:50.042Z,26.20
2019-03-19T04:11:50.011Z,18.10
2019-03-19T04:12:49.974Z,21.70
2019-03-19T04:13:49.943Z,21.10
2019-03-19T04:14:49.912Z,19.70
2019-03-19T04:15:49.876Z,16.50
2019-03-19T04:16:49.846Z,16.60
2019-03-19T04:17:49.814Z,20.00
2019-03-19T04:18:49.779Z,20.20
2019-03-19T04:19:49.751Z,19.40
2019-03-19T04:20:49.718Z,16.60
2019-03-19T04:21:49.724Z,21.70
2019-03-19T04:22:49.646Z,18.00
2019-03-19T04:23:49.617Z,21.90
2019-03-19T04:24:49.580Z,21.00
2019-03-19T04:25:49.547Z,20.90
2019-03-19T04:26:49.516Z,20.60
2019-03-19T04:27:49.482Z,16.70
2019-03-19T04:28:49.453Z,20.30
2019-03-19T04:29:49.414Z,21.60
2019-03-19T04:30:49.380Z,19.80
2019-03-19T04:31:49.347Z,25.20
2019-03-19T04:32:49.317Z,20.60
2019-03-19T04:33:49.280Z,25.00
2019-03-19T04:34:49.248Z,23.80
2019-03-19T04:35:49.215Z,18.50
2019-03-19T04:36:49.181Z,22.00
2019-03-19T04:37:49.147Z,22.90
2019-03-19T04:38:49.115Z,17.70
2019-03-19T04:39:49.080Z,18.50
2019-03-19T04:40:49.755Z,19.80
2019-03-19T04:41:49.014Z,21.60
2019-03-19T04:42:48.981Z,21.50
2019-03-19T04:43:48.948Z,22.20
2019-03-19T04:44:48.914Z,18.80
2019-03-19T04:45:48.881Z,24.50
2019-03-19T04:46:48.846Z,22.50
2019-03-19T04:47:48.815Z,21.70
2019-03-19T04:48:48.782Z,22.00
2019-03-19T04:49:48.750Z,22.10
2019-03-19T04:50:48.715Z,19.10
2019-03-19T04:51:48.681Z,20.40
2019-03-19T04:52:48.646Z,24.50
2019-03-19T04:53:48.618Z,25.20
2019-03-19T04:54:48.581Z,22.40
2019-03-19T04:55:48.548Z,22.10
2019-03-19T04:56:48.515Z,24.30
2019-03-19T04:57:48.481Z,21.30
2019-03-19T04:58:48.446Z,22.20
2019-03-19T04:59:48.413Z,25.50
2019-03-19T05:00:48.380Z,23.00
2019-03-19T05:01:48.347Z,23.40
2019-03-19T05:02:48.318Z,24.40
2019-03-19T05:03:48.280Z,21.30
2019-03-19T05:04:48.245Z,22.10
2019-03-19T05:05:48.215Z,19.70
2019-03-19T05:06:48.180Z,25.60
2019-03-19T05:07:48.151Z,22.20
2019-03-19T05:08:48.114Z,28.70
2019-03-19T05:09:48.078Z,19.10
2019-03-19T05:10:48.047Z,27.10
2019-03-19T05:11:48.010Z,27.40
2019-03-19T05:12:47.982Z,23.20
2019-03-19T05:13:47.945Z,31.00
2019-03-19T05:14:47.910Z,25.90
2019-03-19T05:15:47.877Z,21.30
2019-03-19T05:16:47.846Z,22.00
2019-03-19T05:17:47.810Z,26.90
2019-03-19T05:18:47.776Z,23.40
2019-03-19T05:19:47.744Z,25.70
2019-03-19T05:20:47.734Z,22.70
2019-03-19T05:21:47.674Z,22.60
2019-03-19T05:22:47.641Z,26.70
2019-03-19T05:23:47.609Z,22.30
2019-03-19T05:24:47.575Z,24.20
2019-03-19T05:25:47.541Z,19.90
2019-03-19T05:26:47.507Z,24.40
2019-03-19T05:27:47.474Z,21.80
2019-03-19T05:28:47.440Z,26.70
2019-03-19T05:29:47.408Z,27.50
2019-03-19T05:30:47.372Z,23.80
2019-03-19T05:31:47.339Z,19.40
2019-03-19T05:32:47.307Z,21.50
2019-03-19T05:33:47.272Z,25.10
2019-03-19T05:34:47.239Z,21.70
2019-03-19T05:35:47.207Z,24.30
2019-03-19T05:36:47.173Z,27.50
2019-03-19T05:37:47.141Z,28.80
2019-03-19T05:38:47.108Z,19.80
2019-03-19T05:39:47.071Z,27.00
2019-03-19T05:40:47.037Z,23.80
2019-03-19T05:41:47.004Z,23.20
2019-03-19T05:42:46.970Z,23.90
2019-03-19T05:43:46.936Z,23.40
2019-03-19T05:44:46.903Z,29.20
2019-03-19T05:45:46.869Z,21.70
2019-03-19T05:46:46.839Z,24.60
2019-03-19T05:47:46.805Z,34.00
2019-03-19T05:48:46.769Z,20.80
2019-03-19T05:49:46.735Z,22.40
2019-03-19T05:50:46.703Z,25.20
2019-03-19T05:51:46.669Z,25.90
2019-03-19T05:52:48.558Z,17.70
2019-03-19T05:53:46.605Z,27.40
2019-03-19T05:54:46.569Z,22.80
2019-03-19T05:55:46.537Z,20.10
2019-03-19T05:56:46.502Z,18.40
2019-03-19T05:57:50.065Z,19.40
2019-03-19T05:58:46.437Z,19.00
2019-03-19T05:59:46.405Z,23.30
2019-03-19T06:00:46.372Z,22.80
2019-03-19T06:01:46.339Z,22.60
2019-03-19T06:02:46.304Z,19.20
2019-03-19T06:03:46.273Z,25.70
2019-03-19T06:04:46.239Z,22.40
2019-03-19T06:05:46.209Z,16.10
2019-03-19T06:06:46.173Z,18.30
2019-03-19T06:07:46.141Z,17.40
2019-03-19T06:08:46.107Z,22.20
2019-03-19T06:09:46.074Z,21.50
2019-03-19T06:10:46.042Z,24.10
2019-03-19T06:11:46.011Z,21.90
2019-03-19T06:12:45.977Z,20.10
2019-03-19T06:13:45.944Z,19.30
2019-03-19T06:14:45.912Z,21.80
2019-03-19T06:15:45.879Z,19.60
2019-03-19T06:16:45.853Z,18.50
2019-03-19T06:17:45.821Z,19.30
2019-03-19T06:18:45.785Z,17.50
2019-03-19T06:19:45.753Z,19.20
2019-03-19T06:20:45.717Z,17.80
2019-03-19T06:21:45.687Z,13.90
2019-03-19T06:22:45.658Z,14.40
2019-03-19T06:23:45.624Z,12.90
2019-03-19T06:24:45.591Z,14.00
2019-03-19T06:25:45.560Z,14.70
2019-03-19T06:26:45.527Z,19.50
2019-03-19T06:27:45.496Z,13.80
2019-03-19T06:28:45.465Z,16.60
2019-03-19T06:29:45.436Z,13.00
2019-03-19T06:30:45.403Z,17.50
2019-03-19T06:31:45.372Z,12.30
2019-03-19T06:32:45.341Z,14.10
2019-03-19T06:33:45.310Z,18.40
2019-03-19T06:34:45.285Z,16.80
2019-03-19T06:35:45.251Z,14.40
2019-03-19T06:36:45.219Z,13.80
2019-03-19T06:37:45.190Z,12.20
2019-03-19T06:38:45.161Z,12.50
2019-03-19T06:39:45.133Z,15.70
2019-03-19T06:40:45.103Z,13.40
2019-03-19T06:41:45.074Z,15.10
2019-03-19T06:42:45.045Z,15.60
2019-03-19T06:43:45.017Z,14.50
2019-03-19T06:44:44.989Z,11.80
2019-03-19T06:45:44.961Z,10.60
2019-03-19T06:46:44.932Z,11.60
2019-03-19T06:47:44.906Z,11.90
2019-03-19T06:48:44.876Z,11.00
2019-03-19T06:49:44.855Z,13.00
2019-03-19T06:50:45.712Z,14.10
2019-03-19T06:51:44.796Z,14.10
2019-03-19T06:52:44.770Z,10.90
2019-03-19T06:53:44.741Z,14.80
2019-03-19T06:54:44.714Z,16.10
2019-03-19T06:55:44.687Z,18.00
2019-03-19T06:56:44.663Z,14.70
2019-03-19T06:57:44.637Z,12.50
2019-03-19T06:58:44.601Z,12.60
2019-03-19T06:59:44.575Z,15.40
2019-03-19T07:00:44.550Z,14.00
2019-03-19T07:01:44.521Z,15.70
2019-03-19T07:02:44.489Z,16.20
2019-03-19T07:03:44.459Z,14.60
2019-03-19T07:04:44.430Z,14.70
2019-03-19T07:05:44.401Z,15.20
2019-03-19T07:06:44.373Z,14.50
2019-03-19T07:07:44.343Z,14.50
2019-03-19T07:08:44.313Z,15.80
2019-03-19T07:09:44.283Z,12.30
2019-03-19T07:10:44.253Z,13.80
2019-03-19T07:11:44.226Z,15.30
2019-03-19T07:12:44.263Z,20.00
2019-03-19T07:13:44.163Z,12.40
2019-03-19T07:14:44.134Z,14.80
2019-03-19T07:15:44.105Z,14.60
2019-03-19T07:16:44.076Z,14.00
2019-03-19T07:17:44.043Z,19.00
2019-03-19T07:18:44.014Z,19.50
2019-03-19T07:19:43.990Z,16.40
2019-03-19T07:20:43.953Z,21.20
2019-03-19T07:21:43.931Z,15.30
2019-03-19T07:22:43.893Z,11.90
2019-03-19T07:23:43.864Z,16.50
2019-03-19T07:24:43.835Z,15.70
2019-03-19T07:25:43.801Z,14.40
2019-03-19T07:26:43.771Z,14.70
2019-03-19T07:27:43.741Z,12.70
2019-03-19T07:28:43.719Z,13.30
2019-03-19T07:29:43.687Z,14.50
2019-03-19T07:30:43.652Z,13.70
2019-03-19T07:31:43.624Z,11.30
2019-03-19T07:32:43.593Z,12.20
2019-03-19T07:33:43.566Z,14.40
2019-03-19T07:34:43.538Z,16.70
2019-03-19T07:35:43.510Z,12.80
2019-03-19T07:36:43.484Z,14.50
2019-03-19T07:37:43.453Z,15.50
2019-03-19T07:38:43.426Z,13.80
2019-03-19T07:39:43.400Z,15.10
2019-03-19T07:40:43.372Z,14.10
2019-03-19T07:41:43.343Z,16.50
2019-03-19T07:42:43.329Z,11.80
2019-03-19T07:43:43.291Z,12.90
2019-03-19T07:44:43.265Z,12.70
2019-03-19T07:45:43.233Z,12.30
2019-03-19T07:46:45.713Z,15.80
2019-03-19T07:47:43.184Z,13.10
2019-03-19T07:48:43.152Z,16.60
2019-03-19T07:49:43.121Z,19.10
2019-03-19T07:50:43.095Z,13.90
2019-03-19T07:51:43.065Z,11.30
2019-03-19T07:52:43.041Z,16.00
2019-03-19T07:53:43.009Z,11.70
2019-03-19T07:54:42.979Z,11.80
2019-03-19T07:55:42.957Z,13.80
2019-03-19T07:56:42.927Z,14.10
2019-03-19T07:57:42.895Z,10.30
2019-03-19T07:58:45.556Z,11.30
2019-03-19T07:59:42.841Z,10.20
2019-03-19T08:00:42.809Z,9.90
2019-03-19T08:01:42.780Z,12.70
2019-03-19T08:02:42.754Z,13.50
2019-03-19T08:03:42.724Z,13.00
2019-03-19T08:04:42.695Z,11.00
2019-03-19T08:05:42.665Z,11.60
2019-03-19T08:06:42.637Z,14.70
2019-03-19T08:07:42.608Z,16.50
2019-03-19T08:08:42.580Z,12.80
2019-03-19T08:09:42.557Z,11.40
2019-03-19T08:10:42.523Z,10.50
2019-03-19T08:11:42.497Z,10.30
2019-03-19T08:12:42.469Z,13.80
2019-03-19T08:13:42.443Z,12.20
2019-03-19T08:14:42.415Z,11.50
2019-03-19T08:15:42.387Z,12.30
2019-03-19T08:16:42.360Z,7.50
2019-03-19T08:17:43.134Z,14.30
2019-03-19T08:18:42.307Z,11.70
2019-03-19T08:19:42.282Z,13.20
2019-03-19T08:20:42.255Z,11.90
2019-03-19T08:21:42.235Z,8.70
2019-03-19T08:22:42.203Z,13.20
2019-03-19T08:23:42.178Z,14.50
2019-03-19T08:24:42.152Z,12.50
2019-03-19T08:25:42.138Z,11.00
2019-03-19T08:26:42.102Z,10.10
2019-03-19T08:27:42.079Z,10.40
2019-03-19T08:28:42.051Z,12.40
2019-03-19T08:29:42.029Z,8.60
2019-03-19T08:30:42.005Z,16.60
2019-03-19T08:31:42.031Z,10.30
2019-03-19T08:32:41.954Z,13.70
2019-03-19T08:33:41.930Z,8.60
2019-03-19T08:34:41.907Z,10.30
2019-03-19T08:35:41.884Z,12.30
2019-03-19T08:36:41.857Z,12.90
2019-03-19T08:37:41.834Z,12.70
2019-03-19T08:38:41.812Z,12.00
2019-03-19T08:39:41.789Z,13.20
2019-03-19T08:40:41.764Z,11.10
2019-03-19T08:41:41.739Z,10.60
2019-03-19T08:42:41.717Z,11.80
2019-03-19T08:43:41.692Z,14.50
2019-03-19T08:44:41.668Z,11.40
2019-03-19T08:45:41.644Z,14.00
2019-03-19T08:46:41.623Z,12.10
2019-03-19T08:47:41.596Z,12.20
2019-03-19T08:48:41.574Z,12.50
2019-03-19T08:49:41.549Z,10.40
2019-03-19T08:50:41.523Z,14.50
2019-03-19T08:51:41.499Z,12.80
2019-03-19T08:52:41.479Z,12.90
2019-03-19T08:53:41.452Z,13.20
2019-03-19T08:54:41.428Z,11.50
2019-03-19T08:55:41.410Z,11.60
2019-03-19T08:56:41.383Z,14.40
2019-03-19T08:57:41.357Z,12.10
2019-03-19T08:58:41.331Z,10.30
2019-03-19T08:59:41.307Z,9.80
2019-03-19T09:00:41.282Z,15.80
2019-03-19T09:01:41.258Z,19.20
2019-03-19T09:02:41.232Z,14.30
2019-03-19T09:03:41.208Z,15.40
2019-03-19T09:04:41.180Z,10.40
2019-03-19T09:05:41.155Z,11.50
2019-03-19T09:06:41.130Z,14.50
2019-03-19T09:07:41.106Z,14.00
2019-03-19T09:08:41.078Z,13.20
2019-03-19T09:09:41.051Z,11.80
2019-03-19T09:10:41.027Z,16.80
2019-03-19T09:11:41.000Z,10.60
2019-03-19T09:12:40.973Z,14.30
2019-03-19T09:13:40.948Z,12.90
2019-03-19T09:14:40.924Z,17.40
2019-03-19T09:15:42.485Z,11.10
2019-03-19T09:16:40.870Z,9.40
2019-03-19T09:17:40.842Z,13.10
2019-03-19T09:18:40.816Z,18.00
2019-03-19T09:19:40.791Z,9.90
2019-03-19T09:20:40.767Z,11.90
2019-03-19T09:21:40.738Z,15.50
2019-03-19T09:22:40.713Z,14.70
2019-03-19T09:23:40.686Z,12.30
2019-03-19T09:24:40.660Z,13.40
2019-03-19T09:25:40.635Z,14.80
2019-03-19T09:26:40.608Z,8.50
2019-03-19T09:27:40.586Z,13.40
2019-03-19T09:28:40.554Z,12.70
2019-03-19T09:29:40.529Z,14.70
2019-03-19T09:30:40.502Z,17.40
2019-03-19T09:31:40.475Z,13.80
2019-03-19T09:32:40.453Z,12.20
2019-03-19T09:33:40.423Z,14.20
2019-03-19T09:34:40.397Z,8.90
2019-03-19T09:35:40.369Z,11.70
2019-03-19T09:36:40.342Z,15.50
2019-03-19T09:37:44.465Z,9.40
2019-03-19T09:38:40.289Z,10.40
2019-03-19T09:39:40.265Z,11.50
2019-03-19T09:40:40.237Z,13.50
2019-03-19T09:41:40.212Z,9.30
2019-03-19T09:42:40.185Z,12.90
2019-03-19T09:43:40.161Z,15.10
2019-03-19T09:44:40.131Z,12.70
2019-03-19T09:45:40.105Z,8.70
2019-03-19T09:46:40.080Z,12.40
2019-03-19T09:47:40.053Z,10.50
2019-03-19T09:48:40.027Z,14.70
2019-03-19T09:49:40.000Z,10.10
2019-03-19T09:50:39.974Z,16.30
2019-03-19T09:51:39.946Z,12.80
2019-03-19T09:52:39.919Z,9.10
2019-03-19T09:53:39.893Z,11.30
2019-03-19T09:54:39.866Z,14.50
2019-03-19T09:55:39.842Z,18.90
2019-03-19T09:56:39.815Z,12.50
2019-03-19T09:57:39.789Z,14.30
2019-03-19T09:58:39.762Z,16.20
2019-03-19T09:59:42.034Z,13.10
2019-03-19T10:00:39.707Z,18.50
2019-03-19T10:01:39.681Z,9.60
2019-03-19T10:02:39.654Z,9.80
2019-03-19T10:03:39.627Z,13.60
2019-03-19T10:04:39.601Z,10.10
2019-03-19T10:05:39.573Z,12.40
2019-03-19T10:06:39.545Z,9.60
2019-03-19T10:07:39.519Z,11.50
2019-03-19T10:08:39.492Z,11.80
2019-03-19T10:09:39.465Z,10.80
2019-03-19T10:10:39.467Z,13.20
2019-03-19T10:11:39.414Z,13.10
2019-03-19T10:12:39.384Z,9.30
2019-03-19T10:13:39.358Z,9.80
2019-03-19T10:14:39.330Z,15.80
2019-03-19T10:15:39.302Z,12.10
2019-03-19T10:16:39.274Z,12.70
2019-03-19T10:17:39.245Z,8.90
2019-03-19T10:18:39.217Z,11.10
2019-03-19T10:19:39.190Z,9.80
2019-03-19T10:20:39.161Z,14.40
2019-03-19T10:21:39.135Z,8.90
2019-03-19T10:22:39.107Z,10.50
2019-03-19T10:23:39.082Z,9.30
2019-03-19T10:24:39.051Z,12.30
2019-03-19T10:25:39.025Z,11.20
2019-03-19T10:26:39.000Z,11.30
2019-03-19T10:27:38.971Z,11.80
2019-03-19T10:28:38.950Z,10.60
2019-03-19T10:29:38.957Z,15.00
2019-03-19T10:30:38.898Z,8.40
2019-03-19T10:31:38.868Z,7.90
2019-03-19T10:32:38.841Z,9.60
2019-03-19T10:33:38.834Z,11.30
2019-03-19T10:34:38.792Z,10.20
2019-03-19T10:35:38.765Z,12.90
2019-03-19T10:36:38.740Z,16.80
2019-03-19T10:37:38.749Z,14.40
2019-03-19T10:38:38.691Z,9.10
2019-03-19T10:39:38.679Z,12.00
2019-03-19T10:40:38.641Z,11.20
2019-03-19T10:41:38.612Z,12.50
2019-03-19T10:42:38.585Z,12.60
2019-03-19T10:43:38.558Z,12.00
2019-03-19T10:44:38.530Z,10.50
2019-03-19T10:45:38.512Z,12.70
2019-03-19T10:46:38.480Z,9.00
2019-03-19T10:47:38.452Z,16.10
2019-03-19T10:48:38.431Z,12.60
2019-03-19T10:49:38.401Z,11.20
2019-03-19T10:50:38.376Z,10.80
2019-03-19T10:51:38.350Z,10.60
2019-03-19T10:52:38.321Z,6.90
2019-03-19T10:53:38.311Z,7.60
2019-03-19T10:54:38.271Z,6.90
2019-03-19T10:55:38.246Z,9.50
2019-03-19T10:56:39.015Z,10.70
2019-03-19T10:57:38.194Z,6.20
2019-03-19T10:58:38.174Z,8.00
2019-03-19T10:59:48.543Z,7.50
2019-03-19T11:00:38.118Z,10.00
2019-03-19T11:01:38.094Z,8.70
2019-03-19T11:02:38.068Z,8.90
2019-03-19T11:03:38.043Z,10.90
2019-03-19T11:04:38.017Z,8.90
2019-03-19T11:05:37.998Z,6.70
2019-03-19T11:06:38.015Z,10.30
2019-03-19T11:07:37.941Z,9.70
2019-03-19T11:08:37.913Z,9.70
2019-03-19T11:09:37.888Z,9.80
2019-03-19T11:10:37.861Z,9.90
2019-03-19T11:11:37.836Z,12.10
2019-03-19T11:12:37.808Z,10.10
2019-03-19T11:13:37.786Z,8.30
2019-03-19T11:14:37.758Z,9.40
2019-03-19T11:15:37.731Z,10.40
2019-03-19T11:16:37.704Z,9.50
2019-03-19T11:17:37.678Z,10.10
2019-03-19T11:18:37.651Z,9.30
2019-03-19T11:19:37.624Z,7.70
2019-03-19T11:20:37.599Z,6.30
2019-03-19T11:21:37.572Z,8.40
2019-03-19T11:22:37.545Z,9.90
2019-03-19T11:23:37.518Z,11.70
2019-03-19T11:24:37.493Z,8.90
2019-03-19T11:25:37.465Z,11.40
2019-03-19T11:26:37.439Z,8.60
2019-03-19T11:27:37.416Z,7.90
2019-03-19T11:28:37.385Z,8.40
2019-03-19T11:29:37.361Z,8.00
2019-03-19T11:30:37.332Z,8.60
2019-03-19T11:31:37.307Z,11.20
2019-03-19T11:32:37.278Z,10.20
2019-03-19T11:33:37.253Z,10.80
2019-03-19T11:34:37.229Z,10.20
2019-03-19T11:35:37.200Z,8.90
2019-03-19T11:36:37.173Z,10.50
2019-03-19T11:37:37.147Z,8.90
2019-03-19T11:38:37.121Z,9.40
2019-03-19T11:39:37.094Z,11.20
2019-03-19T11:40:37.068Z,10.50
2019-03-19T11:41:37.042Z,6.40
2019-03-19T11:42:37.016Z,8.30
2019-03-19T11:43:36.991Z,7.60
2019-03-19T11:44:36.962Z,6.60
2019-03-19T11:45:36.938Z,8.10
2019-03-19T11:46:36.909Z,7.30
2019-03-19T11:47:36.883Z,8.60
2019-03-19T11:48:36.857Z,9.80
2019-03-19T11:49:36.830Z,10.10
2019-03-19T11:50:36.805Z,9.20
2019-03-19T11:51:36.776Z,8.30
2019-03-19T11:52:36.750Z,5.50
2019-03-19T11:53:36.726Z,8.00
2019-03-19T11:54:36.697Z,10.20
2019-03-19T11:55:36.672Z,6.70
2019-03-19T11:56:36.642Z,10.40
2019-03-19T11:57:36.617Z,12.10
2019-03-19T11:58:36.591Z,8.40
2019-03-19T11:59:36.565Z,8.30
2019-03-19T12:00:36.535Z,7.30
2019-03-19T12:01:36.511Z,8.50
2019-03-19T12:02:36.487Z,6.20
2019-03-19T12:03:36.457Z,5.40
2019-03-19T12:04:36.430Z,7.70
2019-03-19T12:05:36.403Z,8.30
2019-03-19T12:06:36.378Z,8.90
2019-03-19T12:07:36.352Z,6.60
2019-03-19T12:08:36.324Z,6.30
2019-03-19T12:09:36.300Z,5.80
2019-03-19T12:10:36.275Z,7.50
2019-03-19T12:11:36.249Z,6.40
2019-03-19T12:12:36.226Z,9.10
2019-03-19T12:13:36.200Z,6.20
2019-03-19T12:14:36.176Z,7.90
2019-03-19T12:15:36.153Z,9.30
2019-03-19T12:16:36.126Z,8.80
2019-03-19T12:17:36.101Z,7.10
2019-03-19T12:18:36.077Z,7.70
2019-03-19T12:19:36.086Z,8.00
2019-03-19T12:20:36.029Z,7.40
2019-03-19T12:21:36.006Z,11.20
2019-03-19T12:22:35.981Z,6.90
2019-03-19T12:23:35.956Z,7.60
2019-03-19T12:24:35.929Z,6.50
2019-03-19T12:25:35.907Z,7.40
2019-03-19T12:26:35.881Z,5.80
2019-03-19T12:27:35.855Z,11.30
2019-03-19T12:28:39.905Z,7.20
2019-03-19T12:29:35.847Z,5.20
2019-03-19T12:30:35.778Z,4.80
2019-03-19T12:31:35.755Z,5.40
2019-03-19T12:32:35.727Z,5.30
2019-03-19T12:33:40.742Z,3.70
2019-03-19T12:34:35.676Z,6.40
2019-03-19T12:35:35.651Z,5.50
2019-03-19T12:36:35.673Z,7.80
2019-03-19T12:37:35.600Z,7.60
2019-03-19T12:38:35.574Z,7.30
2019-03-19T12:39:35.549Z,6.00
2019-03-19T12:40:37.133Z,7.00
2019-03-19T12:41:35.497Z,5.80
2019-03-19T12:42:35.475Z,6.70
2019-03-19T12:43:35.448Z,6.90
2019-03-19T12:44:35.418Z,6.90
2019-03-19T12:45:35.393Z,6.30
2019-03-19T12:46:35.367Z,9.10
2019-03-19T12:47:35.343Z,6.20
2019-03-19T12:48:35.315Z,6.90
2019-03-19T12:49:35.293Z,4.60
2019-03-19T12:50:35.265Z,6.90
2019-03-19T12:51:35.241Z,3.00
2019-03-19T12:52:35.214Z,4.70
2019-03-19T12:53:35.190Z,6.50
2019-03-19T12:54:36.922Z,4.80
2019-03-19T12:55:35.139Z,4.40
2019-03-19T12:56:35.111Z,6.10